world map with RJNY marked

RJNY - Airport

This information may not be accurate or current and is not valid for navigation or flight planning. No warranty of fitness for any purpose is made or implied.

flag of Shizuokaflag of Japan

Donate via PayPal

Additional information is available on the NEW Great Circle Mapper

Location
City:  Shizuhama, Shizuoka, Japan
ICAO:RJNY

Details
Type:Airport (Aerodrome, Airfield)
Use:Military
Latitude:34°48'46"N (34.812778)
Longitude:138°17'53"E (138.298056)
Datum:WGS 1984
Elevation:23 ft (7 m)
Runways:1
Longest:4920 × 150 ft (1500 × 45.5 m)

Time
Timezone:UTC+9 (DST+11)
Local Time:

Weather
METAR:RJNY  040915Z 27019G30KT 9999 FEW025 12/M03 Q1012 RMK 1CU025 A2990

Related Locations
Nearby:
Farthest:SUEX: 12372 mi / 19911 km
Montevideo East [Montevideo East UIR], UY

Find:

   beyond  
but within

Other Information
Maps:
Sources:

  


 


Great Circle Mapper   Great Circle Mapper
Great Circle Mapper FAQ   Great Circle Mapper FAQ
  Karl's Home Page
KLSē   KLSē Home
   GC on Facebook
Airlines of the World   Airlines of the World
Donate via PayPal


Copyright © 2004-2020, Karl L. Swartz. All rights reserved.
All trademarks mentioned herein belong to their respective owners.

Please see credits for attribution and copyright information.

Karl Swartz <karl@kls2.com>
  Powered by FreeBSD
Valid HTML 4.01!
Labeled with ICRA
hCard Microformat
Geo Microformat